»·PEaware :: SWA56 KOAK-KBUR

SWA56 :: KOAK-KBUR

FLIGHT INFORMATION

Flight Status: Arrived
Operator:
Southwest Airlines
More flights by this operator :: More flights under this callsign
Pilot: Steve F. (26981)
Aircraft: BOEING 737-800
(B738)
More flights by this aircraft type
Origin: KOAK Metro Oakland Intl
United States
Destination: KBUR Bob Hope-Burbank
United States
More flights between these airports :: More routes between these airports
Route: CNDEL4 CISKO RDHOT ROKKR2
File this flight plan on PilotEdge
Remarks:
Altitude:
(Current/Filed)
31,000ft
Speed:
(Current/Filed)
430kts
Departed: 23-Jul-21 08:40 PM
Arrived: 23-Jul-21 09:33 PM
Distance/Time
Traveled:
283nm/0:52
Distance/Time
To Go:
Arrived

Flight Plot

Page will automatically refresh every two minutes.

Flight plan parsing failed; only flown route is shown


Map Options




Map Legend


Flown Route
Filed Route
Departure Airport
Arrival Airport
Navaid (VOR, NDB)
Fix

Horizontal Profiles

Position Reports

Time Latitude Longitude Heading Altitude Ground
Speed
23-Jul-21 20:09 37.710997 -122.215237 340 14ft 0kts
23-Jul-21 20:17 37.710998 -122.215238 340 14ft 0kts
23-Jul-21 20:18 37.710998 -122.215238 340 14ft 0kts
23-Jul-21 20:19 37.710998 -122.215238 340 14ft 0kts
23-Jul-21 20:20 37.710998 -122.215238 340 14ft 0kts
23-Jul-21 20:21 37.710998 -122.215238 340 14ft 0kts
23-Jul-21 20:22 37.710998 -122.215238 340 14ft 0kts
23-Jul-21 20:23 37.710998 -122.215238 340 14ft 0kts
23-Jul-21 20:24 37.710998 -122.215238 340 14ft 0kts
23-Jul-21 20:25 37.710998 -122.215238 340 14ft 0kts
23-Jul-21 20:26 37.710998 -122.215238 340 14ft 0kts
23-Jul-21 20:27 37.710998 -122.215238 340 14ft 0kts
23-Jul-21 20:28 37.710998 -122.215238 340 14ft 0kts
23-Jul-21 20:29 37.710998 -122.215238 340 14ft 0kts
23-Jul-21 20:30 37.710998 -122.215238 340 14ft 0kts
23-Jul-21 20:31 37.710998 -122.215238 340 14ft 0kts
23-Jul-21 20:32 37.710625 -122.215068 340 14ft 2kts
23-Jul-21 20:33 37.710457 -122.214769 236 14ft 0kts
23-Jul-21 20:34 37.710457 -122.214769 236 14ft 0kts
23-Jul-21 20:35 37.710457 -122.214769 236 14ft 0kts
23-Jul-21 20:36 37.707658 -122.217076 220 14ft 14kts
23-Jul-21 20:37 37.704699 -122.215211 130 14ft 15kts
23-Jul-21 20:38 37.701767 -122.214683 306 14ft 11kts
23-Jul-21 20:39 37.715922 -122.235961 309 286ft 172kts
23-Jul-21 20:40 37.748546 -122.285431 309 2109ft 194kts
23-Jul-21 20:41 37.789080 -122.344417 299 3751ft 242kts
23-Jul-21 20:42 37.767073 -122.416792 196 6703ft 270kts
23-Jul-21 20:43 37.689601 -122.427334 189 9575ft 289kts
23-Jul-21 20:44 37.609761 -122.445495 189 12367ft 300kts
23-Jul-21 20:45 37.518542 -122.466633 183 13516ft 368kts
23-Jul-21 20:46 37.428855 -122.406417 135 15583ft 389kts
23-Jul-21 20:47 37.350624 -122.308046 137 17544ft 405kts
23-Jul-21 20:48 37.268138 -122.208366 137 19336ft 419kts
23-Jul-21 20:49 37.182793 -122.105346 137 20919ft 433kts
23-Jul-21 20:50 37.094560 -121.999670 137 22314ft 445kts
23-Jul-21 20:51 37.003810 -121.891577 137 23584ft 455kts
23-Jul-21 20:52 36.911054 -121.781493 137 24775ft 463kts
23-Jul-21 20:53 36.816959 -121.670213 137 25879ft 469kts
23-Jul-21 20:54 36.721460 -121.557671 137 26903ft 475kts
23-Jul-21 20:55 36.626290 -121.445913 137 27835ft 480kts
23-Jul-21 20:56 36.529678 -121.332497 137 29192ft 474kts
23-Jul-21 20:57 36.433963 -121.221163 138 30615ft 469kts
23-Jul-21 20:58 36.336972 -121.113390 142 31062ft 466kts
23-Jul-21 20:59 36.236671 -121.012236 142 31071ft 465kts
23-Jul-21 21:00 36.136615 -120.910417 142 31061ft 465kts
23-Jul-21 21:01 36.039692 -120.811242 142 31054ft 464kts
23-Jul-21 21:02 35.940557 -120.710465 141 31054ft 461kts
23-Jul-21 21:03 35.841659 -120.610190 142 31071ft 461kts
23-Jul-21 21:04 35.742228 -120.510141 142 31085ft 461kts
23-Jul-21 21:05 35.642927 -120.410462 142 31088ft 461kts
23-Jul-21 21:07 35.544136 -120.309893 141 31095ft 461kts
23-Jul-21 21:08 35.446167 -120.207734 141 31098ft 461kts
23-Jul-21 21:09 35.348461 -120.106321 141 30999ft 461kts
23-Jul-21 21:10 35.251842 -120.005546 141 28858ft 458kts
23-Jul-21 21:11 35.161629 -119.912569 140 26800ft 440kts
23-Jul-21 21:12 35.070776 -119.818890 139 24719ft 424kts
23-Jul-21 21:13 34.982090 -119.727935 139 22706ft 409kts
23-Jul-21 21:14 34.896074 -119.640064 139 20702ft 397kts
23-Jul-21 21:15 34.823665 -119.542186 128 18817ft 383kts
23-Jul-21 21:16 34.758752 -119.445046 127 17189ft 368kts
23-Jul-21 21:17 34.696381 -119.349577 128 15723ft 351kts
23-Jul-21 21:18 34.637787 -119.258565 123 14138ft 343kts
23-Jul-21 21:19 34.590344 -119.161458 121 12856ft 323kts
23-Jul-21 21:20 34.545725 -119.074803 131 11531ft 288kts
23-Jul-21 21:21 34.486063 -119.015725 143 10185ft 288kts
23-Jul-21 21:22 34.422081 -118.956567 140 8783ft 289kts
23-Jul-21 21:23 34.361610 -118.895971 140 8019ft 278kts
23-Jul-21 21:24 34.305114 -118.832960 138 7460ft 272kts
23-Jul-21 21:25 34.258088 -118.769376 116 6666ft 250kts
23-Jul-21 21:26 34.231063 -118.693151 114 5204ft 239kts
23-Jul-21 21:27 34.205121 -118.622681 114 4179ft 211kts
23-Jul-21 21:28 34.200319 -118.559416 90 3627ft 177kts
23-Jul-21 21:29 34.199869 -118.499569 92 2908ft 183kts
23-Jul-21 21:30 34.198961 -118.442472 92 1949ft 152kts
23-Jul-21 21:31 34.198287 -118.393959 92 1153ft 144kts
23-Jul-21 21:31 34.197745 -118.357141 91 729ft 78kts
23-Jul-21 21:33 34.196757 -118.351384 180 729ft 0kts

Navigation Log

Ident Type
Flight plan parsing failed, navigation log unavailable